メインページ
METAR-TAF:

METAR-TAF

空港 :

ロングイェールビーン, ノルウェー

緯度: 78-15N, 経度: 015-28E, 海抜: 2m

現時点の気象観測

当レポートは15分前の04:50(UTC)に作成
南/南西の風 9kt
気温 2°C
湿度 69%
気圧 1017 hPa
視程10km以上
高度3000ftの千切れ雲あり

METAR: ENSB 210450Z 20009KT 9999 BKN030 02/M03 Q1017 RMK WIND 1400FT 20006KT

時間: 07:05 (05:05 UTC)

予報

予報は21日の 00時(UTC)から 21日の 24時(UTC)まで有効
南東の風 8kt
視程10km以上
高度2000ftの雲はほとんどない
高度3000ftの千切れ雲あり
21日の 12時(UTC)から 21日の 14時(UTC)まで徐々に
西/南西の風 10kt

TAF: ENSB 2100/2124 13008KT 9999 FEW020 BKN030 BECMG 2112/2114 24010KT

4,000以上の空港の気象観測と天気予報(METAR報とTAF報)

利用可能な観測所は地図上に黄色い丸と赤い丸で示す。

丸の上にカーソルを重ねると観測所名を参照できる。

次にクリックすると気象観測と天気予報を参照できる。

マップの切り替え:黒色「×」印の緑ボタンをクリックして拡大、「-」印の緑ボタンをクリックして縮小、緑色の三角印をクリックして隣りの地図に切り替え


METAR-TAF: